sensor_id;sensor_type;location;lat;lon;timestamp;P1;durP1;ratioP1;P2;durP2;ratioP2
51654;SDS011;37732;53.106;7.030;2023-03-17T00:00:36;7.03;;;4.45;;
51654;SDS011;37732;53.106;7.030;2023-03-17T00:03:05;7.50;;;4.47;;
51654;SDS011;37732;53.106;7.030;2023-03-17T00:05:34;7.38;;;3.97;;
51654;SDS011;37732;53.106;7.030;2023-03-17T00:08:05;7.82;;;3.92;;
51654;SDS011;37732;53.106;7.030;2023-03-17T00:10:38;8.18;;;3.92;;
51654;SDS011;37732;53.106;7.030;2023-03-17T00:13:04;6.40;;;4.10;;
51654;SDS011;37732;53.106;7.030;2023-03-17T00:15:30;6.15;;;4.20;;
51654;SDS011;37732;53.106;7.030;2023-03-17T00:17:57;6.82;;;4.15;;
51654;SDS011;37732;53.106;7.030;2023-03-17T00:20:25;8.15;;;4.68;;
51654;SDS011;37732;53.106;7.030;2023-03-17T00:22:53;8.15;;;4.97;;
51654;SDS011;37732;53.106;7.030;2023-03-17T00:25:25;8.13;;;4.60;;
51654;SDS011;37732;53.106;7.030;2023-03-17T00:27:55;7.82;;;4.90;;
51654;SDS011;37732;53.106;7.030;2023-03-17T00:30:22;7.07;;;4.70;;
51654;SDS011;37732;53.106;7.030;2023-03-17T00:32:49;6.53;;;4.43;;
51654;SDS011;37732;53.106;7.030;2023-03-17T00:35:26;6.80;;;4.85;;
51654;SDS011;37732;53.106;7.030;2023-03-17T00:37:53;7.05;;;4.70;;
51654;SDS011;37732;53.106;7.030;2023-03-17T00:40:29;7.13;;;4.88;;
51654;SDS011;37732;53.106;7.030;2023-03-17T00:42:57;7.65;;;5.10;;
51654;SDS011;37732;53.106;7.030;2023-03-17T00:45:32;8.13;;;5.13;;
51654;SDS011;37732;53.106;7.030;2023-03-17T00:47:59;9.30;;;5.00;;
51654;SDS011;37732;53.106;7.030;2023-03-17T00:50:26;9.68;;;4.75;;
51654;SDS011;37732;53.106;7.030;2023-03-17T00:52:54;10.25;;;6.20;;
51654;SDS011;37732;53.106;7.030;2023-03-17T00:55:22;8.48;;;5.22;;
51654;SDS011;37732;53.106;7.030;2023-03-17T00:57:50;6.45;;;4.97;;
51654;SDS011;37732;53.106;7.030;2023-03-17T01:02:44;8.07;;;5.22;;
51654;SDS011;37732;53.106;7.030;2023-03-17T01:05:11;6.28;;;4.80;;
51654;SDS011;37732;53.106;7.030;2023-03-17T01:07:37;8.73;;;5.40;;
51654;SDS011;37732;53.106;7.030;2023-03-17T01:10:12;8.13;;;5.32;;
51654;SDS011;37732;53.106;7.030;2023-03-17T01:12:42;6.97;;;5.18;;
51654;SDS011;37732;53.106;7.030;2023-03-17T01:15:10;8.80;;;5.03;;
51654;SDS011;37732;53.106;7.030;2023-03-17T01:17:38;7.53;;;4.97;;
51654;SDS011;37732;53.106;7.030;2023-03-17T01:20:04;7.70;;;5.85;;
51654;SDS011;37732;53.106;7.030;2023-03-17T01:22:31;8.57;;;5.60;;
51654;SDS011;37732;53.106;7.030;2023-03-17T01:24:57;8.15;;;5.10;;
51654;SDS011;37732;53.106;7.030;2023-03-17T01:27:23;9.35;;;5.50;;
51654;SDS011;37732;53.106;7.030;2023-03-17T01:29:52;9.15;;;4.78;;
51654;SDS011;37732;53.106;7.030;2023-03-17T01:32:19;7.68;;;5.45;;
51654;SDS011;37732;53.106;7.030;2023-03-17T01:34:45;7.35;;;5.05;;
51654;SDS011;37732;53.106;7.030;2023-03-17T01:37:11;7.53;;;5.40;;
51654;SDS011;37732;53.106;7.030;2023-03-17T01:39:39;6.65;;;5.10;;
51654;SDS011;37732;53.106;7.030;2023-03-17T01:42:05;7.25;;;5.57;;
51654;SDS011;37732;53.106;7.030;2023-03-17T01:44:31;7.82;;;5.70;;
51654;SDS011;37732;53.106;7.030;2023-03-17T01:46:57;8.88;;;5.28;;
51654;SDS011;37732;53.106;7.030;2023-03-17T01:49:33;7.57;;;5.25;;
51654;SDS011;37732;53.106;7.030;2023-03-17T01:52:05;9.23;;;5.97;;
51654;SDS011;37732;53.106;7.030;2023-03-17T02:05:31;7.22;;;5.85;;
51654;SDS011;37732;53.106;7.030;2023-03-17T02:07:58;7.60;;;5.40;;
51654;SDS011;37732;53.106;7.030;2023-03-17T02:10:24;8.75;;;5.93;;
51654;SDS011;37732;53.106;7.030;2023-03-17T02:12:56;8.02;;;6.25;;
51654;SDS011;37732;53.106;7.030;2023-03-17T02:15:34;8.32;;;5.80;;
51654;SDS011;37732;53.106;7.030;2023-03-17T02:18:07;7.65;;;5.47;;
51654;SDS011;37732;53.106;7.030;2023-03-17T02:23:01;8.05;;;5.90;;
51654;SDS011;37732;53.106;7.030;2023-03-17T02:25:28;8.80;;;6.10;;
51654;SDS011;37732;53.106;7.030;2023-03-17T02:27:58;7.60;;;5.57;;
51654;SDS011;37732;53.106;7.030;2023-03-17T02:30:32;6.68;;;4.95;;
51654;SDS011;37732;53.106;7.030;2023-03-17T02:32:59;7.38;;;6.18;;
51654;SDS011;37732;53.106;7.030;2023-03-17T02:35:26;6.90;;;5.03;;
51654;SDS011;37732;53.106;7.030;2023-03-17T02:37:52;7.88;;;4.97;;
51654;SDS011;37732;53.106;7.030;2023-03-17T02:40:18;7.68;;;5.60;;
51654;SDS011;37732;53.106;7.030;2023-03-17T02:42:44;7.45;;;5.55;;
51654;SDS011;37732;53.106;7.030;2023-03-17T02:45:10;8.15;;;5.97;;
51654;SDS011;37732;53.106;7.030;2023-03-17T02:47:38;7.00;;;5.00;;
51654;SDS011;37732;53.106;7.030;2023-03-17T02:50:05;7.28;;;5.07;;
51654;SDS011;37732;53.106;7.030;2023-03-17T02:52:32;6.78;;;5.57;;
51654;SDS011;37732;53.106;7.030;2023-03-17T02:54:58;8.05;;;6.22;;
51654;SDS011;37732;53.106;7.030;2023-03-17T02:57:24;9.55;;;5.68;;
51654;SDS011;37732;53.106;7.030;2023-03-17T02:59:49;7.82;;;5.43;;
51654;SDS011;37732;53.106;7.030;2023-03-17T03:02:15;6.57;;;5.15;;
51654;SDS011;37732;53.106;7.030;2023-03-17T03:04:41;6.75;;;4.68;;
51654;SDS011;37732;53.106;7.030;2023-03-17T03:07:07;8.23;;;5.45;;
51654;SDS011;37732;53.106;7.030;2023-03-17T03:09:34;7.35;;;5.72;;
51654;SDS011;37732;53.106;7.030;2023-03-17T03:12:00;8.43;;;6.07;;
51654;SDS011;37732;53.106;7.030;2023-03-17T03:14:26;6.80;;;5.20;;
51654;SDS011;37732;53.106;7.030;2023-03-17T03:16:52;7.05;;;5.15;;
51654;SDS011;37732;53.106;7.030;2023-03-17T03:19:18;8.73;;;5.20;;
51654;SDS011;37732;53.106;7.030;2023-03-17T03:21:44;9.63;;;5.43;;
51654;SDS011;37732;53.106;7.030;2023-03-17T03:24:10;7.95;;;5.68;;
51654;SDS011;37732;53.106;7.030;2023-03-17T03:26:36;7.00;;;4.57;;
51654;SDS011;37732;53.106;7.030;2023-03-17T03:29:02;7.93;;;4.78;;
51654;SDS011;37732;53.106;7.030;2023-03-17T03:31:28;9.35;;;5.72;;
51654;SDS011;37732;53.106;7.030;2023-03-17T03:33:54;6.63;;;5.03;;
51654;SDS011;37732;53.106;7.030;2023-03-17T03:36:20;7.65;;;5.05;;
51654;SDS011;37732;53.106;7.030;2023-03-17T03:38:46;8.18;;;5.38;;
51654;SDS011;37732;53.106;7.030;2023-03-17T03:41:12;7.35;;;5.13;;
51654;SDS011;37732;53.106;7.030;2023-03-17T03:43:38;7.53;;;4.95;;
51654;SDS011;37732;53.106;7.030;2023-03-17T03:46:04;7.72;;;5.10;;
51654;SDS011;37732;53.106;7.030;2023-03-17T03:48:30;7.18;;;5.30;;
51654;SDS011;37732;53.106;7.030;2023-03-17T03:50:57;7.10;;;5.15;;
51654;SDS011;37732;53.106;7.030;2023-03-17T03:53:24;7.68;;;5.50;;
51654;SDS011;37732;53.106;7.030;2023-03-17T03:55:50;6.40;;;5.00;;
51654;SDS011;37732;53.106;7.030;2023-03-17T03:58:16;8.57;;;6.10;;
51654;SDS011;37732;53.106;7.030;2023-03-17T04:00:41;7.28;;;5.03;;
51654;SDS011;37732;53.106;7.030;2023-03-17T04:03:07;7.95;;;5.25;;
51654;SDS011;37732;53.106;7.030;2023-03-17T04:05:33;8.20;;;5.35;;
51654;SDS011;37732;53.106;7.030;2023-03-17T04:07:59;6.88;;;5.13;;
51654;SDS011;37732;53.106;7.030;2023-03-17T04:10:25;6.20;;;4.60;;
51654;SDS011;37732;53.106;7.030;2023-03-17T04:12:51;7.15;;;5.00;;
51654;SDS011;37732;53.106;7.030;2023-03-17T04:15:17;8.73;;;5.10;;
51654;SDS011;37732;53.106;7.030;2023-03-17T04:17:44;6.97;;;5.20;;
51654;SDS011;37732;53.106;7.030;2023-03-17T04:20:11;6.47;;;5.47;;
51654;SDS011;37732;53.106;7.030;2023-03-17T04:22:38;6.70;;;5.03;;
51654;SDS011;37732;53.106;7.030;2023-03-17T04:25:05;6.68;;;4.70;;
51654;SDS011;37732;53.106;7.030;2023-03-17T04:27:32;7.53;;;5.00;;
51654;SDS011;37732;53.106;7.030;2023-03-17T04:29:58;8.35;;;5.30;;
51654;SDS011;37732;53.106;7.030;2023-03-17T04:32:24;8.57;;;5.97;;
51654;SDS011;37732;53.106;7.030;2023-03-17T04:34:49;6.68;;;4.97;;
51654;SDS011;37732;53.106;7.030;2023-03-17T04:37:15;7.38;;;5.18;;
51654;SDS011;37732;53.106;7.030;2023-03-17T04:39:41;8.20;;;5.35;;
51654;SDS011;37732;53.106;7.030;2023-03-17T04:42:06;6.75;;;4.68;;
51654;SDS011;37732;53.106;7.030;2023-03-17T04:44:33;8.52;;;5.28;;
51654;SDS011;37732;53.106;7.030;2023-03-17T04:46:59;9.32;;;5.03;;
51654;SDS011;37732;53.106;7.030;2023-03-17T04:49:25;7.00;;;4.72;;
51654;SDS011;37732;53.106;7.030;2023-03-17T04:51:51;6.05;;;4.57;;
51654;SDS011;37732;53.106;7.030;2023-03-17T04:54:16;7.00;;;4.80;;
51654;SDS011;37732;53.106;7.030;2023-03-17T04:56:42;7.53;;;5.45;;
51654;SDS011;37732;53.106;7.030;2023-03-17T04:59:08;7.72;;;5.20;;
51654;SDS011;37732;53.106;7.030;2023-03-17T05:01:34;7.47;;;4.82;;
51654;SDS011;37732;53.106;7.030;2023-03-17T05:04:00;11.60;;;5.50;;
51654;SDS011;37732;53.106;7.030;2023-03-17T05:06:26;8.80;;;5.00;;
51654;SDS011;37732;53.106;7.030;2023-03-17T05:08:52;7.30;;;4.88;;
51654;SDS011;37732;53.106;7.030;2023-03-17T05:11:18;9.10;;;5.10;;
51654;SDS011;37732;53.106;7.030;2023-03-17T05:13:44;7.65;;;4.60;;
51654;SDS011;37732;53.106;7.030;2023-03-17T05:16:10;7.45;;;4.88;;
51654;SDS011;37732;53.106;7.030;2023-03-17T05:18:36;6.60;;;4.55;;
51654;SDS011;37732;53.106;7.030;2023-03-17T05:21:02;8.15;;;4.45;;
51654;SDS011;37732;53.106;7.030;2023-03-17T05:23:29;7.82;;;4.90;;
51654;SDS011;37732;53.106;7.030;2023-03-17T05:25:55;6.72;;;5.03;;
51654;SDS011;37732;53.106;7.030;2023-03-17T05:28:20;6.32;;;4.28;;
51654;SDS011;37732;53.106;7.030;2023-03-17T05:30:47;9.00;;;5.07;;
51654;SDS011;37732;53.106;7.030;2023-03-17T05:33:13;5.90;;;3.97;;
51654;SDS011;37732;53.106;7.030;2023-03-17T05:35:40;6.65;;;4.53;;
51654;SDS011;37732;53.106;7.030;2023-03-17T05:38:06;8.85;;;4.63;;
51654;SDS011;37732;53.106;7.030;2023-03-17T05:40:34;7.35;;;4.55;;
51654;SDS011;37732;53.106;7.030;2023-03-17T05:43:01;7.95;;;4.97;;
51654;SDS011;37732;53.106;7.030;2023-03-17T05:45:28;6.65;;;4.93;;
51654;SDS011;37732;53.106;7.030;2023-03-17T05:47:54;8.23;;;4.68;;
51654;SDS011;37732;53.106;7.030;2023-03-17T05:50:19;5.85;;;4.20;;
51654;SDS011;37732;53.106;7.030;2023-03-17T05:52:46;8.20;;;5.25;;
51654;SDS011;37732;53.106;7.030;2023-03-17T05:55:12;7.32;;;4.63;;
51654;SDS011;37732;53.106;7.030;2023-03-17T05:57:39;7.05;;;4.30;;
51654;SDS011;37732;53.106;7.030;2023-03-17T06:00:05;6.38;;;4.18;;
51654;SDS011;37732;53.106;7.030;2023-03-17T06:02:31;6.82;;;4.55;;
51654;SDS011;37732;53.106;7.030;2023-03-17T06:04:58;7.05;;;4.78;;
51654;SDS011;37732;53.106;7.030;2023-03-17T06:07:23;9.02;;;4.47;;
51654;SDS011;37732;53.106;7.030;2023-03-17T06:09:49;8.13;;;4.90;;
51654;SDS011;37732;53.106;7.030;2023-03-17T06:12:15;6.70;;;4.60;;
51654;SDS011;37732;53.106;7.030;2023-03-17T06:14:40;7.63;;;5.05;;
51654;SDS011;37732;53.106;7.030;2023-03-17T06:17:06;6.63;;;4.40;;
51654;SDS011;37732;53.106;7.030;2023-03-17T06:19:32;8.70;;;5.07;;
51654;SDS011;37732;53.106;7.030;2023-03-17T06:21:58;8.55;;;4.75;;
51654;SDS011;37732;53.106;7.030;2023-03-17T06:24:23;9.10;;;4.93;;
51654;SDS011;37732;53.106;7.030;2023-03-17T06:26:50;9.60;;;5.45;;
51654;SDS011;37732;53.106;7.030;2023-03-17T06:29:17;8.23;;;4.70;;
51654;SDS011;37732;53.106;7.030;2023-03-17T06:31:43;7.10;;;4.45;;
51654;SDS011;37732;53.106;7.030;2023-03-17T06:34:15;9.23;;;4.75;;
51654;SDS011;37732;53.106;7.030;2023-03-17T06:36:41;5.70;;;3.85;;
51654;SDS011;37732;53.106;7.030;2023-03-17T06:39:08;6.82;;;4.57;;
51654;SDS011;37732;53.106;7.030;2023-03-17T06:41:34;6.32;;;4.72;;
51654;SDS011;37732;53.106;7.030;2023-03-17T06:44:00;7.82;;;4.68;;
51654;SDS011;37732;53.106;7.030;2023-03-17T06:46:26;7.70;;;4.38;;
51654;SDS011;37732;53.106;7.030;2023-03-17T06:48:52;8.80;;;4.50;;
51654;SDS011;37732;53.106;7.030;2023-03-17T06:51:18;6.53;;;4.07;;
51654;SDS011;37732;53.106;7.030;2023-03-17T06:53:44;6.88;;;4.10;;
51654;SDS011;37732;53.106;7.030;2023-03-17T06:56:09;6.15;;;4.22;;
51654;SDS011;37732;53.106;7.030;2023-03-17T06:58:35;7.30;;;4.45;;
51654;SDS011;37732;53.106;7.030;2023-03-17T07:01:01;5.72;;;4.18;;
51654;SDS011;37732;53.106;7.030;2023-03-17T07:03:28;5.50;;;3.80;;
51654;SDS011;37732;53.106;7.030;2023-03-17T07:05:55;6.40;;;4.43;;
51654;SDS011;37732;53.106;7.030;2023-03-17T07:08:21;10.10;;;4.53;;
51654;SDS011;37732;53.106;7.030;2023-03-17T07:10:47;6.75;;;4.35;;
51654;SDS011;37732;53.106;7.030;2023-03-17T07:13:13;5.30;;;4.10;;
51654;SDS011;37732;53.106;7.030;2023-03-17T07:15:38;6.07;;;3.83;;
51654;SDS011;37732;53.106;7.030;2023-03-17T07:18:04;7.38;;;4.32;;
51654;SDS011;37732;53.106;7.030;2023-03-17T07:20:31;5.97;;;4.22;;
51654;SDS011;37732;53.106;7.030;2023-03-17T07:22:57;8.02;;;4.57;;
51654;SDS011;37732;53.106;7.030;2023-03-17T07:25:23;8.85;;;4.32;;
51654;SDS011;37732;53.106;7.030;2023-03-17T07:27:49;6.22;;;4.05;;
51654;SDS011;37732;53.106;7.030;2023-03-17T07:30:16;8.63;;;3.78;;
51654;SDS011;37732;53.106;7.030;2023-03-17T07:32:46;6.07;;;3.85;;
51654;SDS011;37732;53.106;7.030;2023-03-17T07:35:13;6.03;;;3.70;;
51654;SDS011;37732;53.106;7.030;2023-03-17T07:37:39;6.95;;;4.07;;
51654;SDS011;37732;53.106;7.030;2023-03-17T07:40:06;5.03;;;3.63;;
51654;SDS011;37732;53.106;7.030;2023-03-17T07:42:34;7.38;;;4.35;;
51654;SDS011;37732;53.106;7.030;2023-03-17T07:45:00;6.47;;;4.25;;
51654;SDS011;37732;53.106;7.030;2023-03-17T07:47:27;7.82;;;4.53;;
51654;SDS011;37732;53.106;7.030;2023-03-17T07:49:52;6.53;;;4.53;;
51654;SDS011;37732;53.106;7.030;2023-03-17T07:52:18;6.60;;;4.05;;
51654;SDS011;37732;53.106;7.030;2023-03-17T07:54:44;6.15;;;4.00;;
51654;SDS011;37732;53.106;7.030;2023-03-17T07:57:10;4.75;;;3.35;;
51654;SDS011;37732;53.106;7.030;2023-03-17T07:59:36;5.65;;;4.38;;
51654;SDS011;37732;53.106;7.030;2023-03-17T08:02:03;7.03;;;3.90;;
51654;SDS011;37732;53.106;7.030;2023-03-17T08:04:29;6.78;;;4.38;;
51654;SDS011;37732;53.106;7.030;2023-03-17T08:06:55;7.35;;;3.85;;
51654;SDS011;37732;53.106;7.030;2023-03-17T08:09:21;7.47;;;4.32;;
51654;SDS011;37732;53.106;7.030;2023-03-17T08:11:47;5.45;;;3.97;;
51654;SDS011;37732;53.106;7.030;2023-03-17T08:14:13;8.70;;;3.92;;
51654;SDS011;37732;53.106;7.030;2023-03-17T08:16:39;6.30;;;3.70;;
51654;SDS011;37732;53.106;7.030;2023-03-17T08:19:05;6.45;;;3.83;;
51654;SDS011;37732;53.106;7.030;2023-03-17T08:21:31;7.57;;;4.13;;
51654;SDS011;37732;53.106;7.030;2023-03-17T08:23:58;8.38;;;3.72;;
51654;SDS011;37732;53.106;7.030;2023-03-17T08:26:24;6.70;;;3.70;;
51654;SDS011;37732;53.106;7.030;2023-03-17T08:28:51;6.75;;;3.80;;
51654;SDS011;37732;53.106;7.030;2023-03-17T08:31:17;6.18;;;3.63;;
51654;SDS011;37732;53.106;7.030;2023-03-17T08:33:45;6.85;;;3.63;;
51654;SDS011;37732;53.106;7.030;2023-03-17T08:36:14;5.15;;;3.75;;
51654;SDS011;37732;53.106;7.030;2023-03-17T08:38:40;7.28;;;4.45;;
51654;SDS011;37732;53.106;7.030;2023-03-17T08:41:09;5.93;;;3.83;;
51654;SDS011;37732;53.106;7.030;2023-03-17T08:43:37;6.35;;;3.53;;
51654;SDS011;37732;53.106;7.030;2023-03-17T08:46:05;7.45;;;3.70;;
51654;SDS011;37732;53.106;7.030;2023-03-17T08:48:51;6.13;;;3.88;;
51654;SDS011;37732;53.106;7.030;2023-03-17T08:51:18;7.00;;;3.95;;
51654;SDS011;37732;53.106;7.030;2023-03-17T08:53:45;5.30;;;3.30;;
51654;SDS011;37732;53.106;7.030;2023-03-17T08:56:11;8.55;;;4.15;;
51654;SDS011;37732;53.106;7.030;2023-03-17T08:58:38;7.60;;;3.83;;
51654;SDS011;37732;53.106;7.030;2023-03-17T09:01:04;6.82;;;3.40;;
51654;SDS011;37732;53.106;7.030;2023-03-17T09:03:31;7.63;;;3.83;;
51654;SDS011;37732;53.106;7.030;2023-03-17T09:05:57;5.88;;;3.38;;
51654;SDS011;37732;53.106;7.030;2023-03-17T09:08:24;6.38;;;3.95;;
51654;SDS011;37732;53.106;7.030;2023-03-17T09:10:51;6.50;;;3.92;;
51654;SDS011;37732;53.106;7.030;2023-03-17T09:13:17;7.40;;;3.60;;
51654;SDS011;37732;53.106;7.030;2023-03-17T09:15:43;6.45;;;3.65;;
51654;SDS011;37732;53.106;7.030;2023-03-17T09:18:10;6.60;;;3.50;;
51654;SDS011;37732;53.106;7.030;2023-03-17T09:20:36;7.30;;;3.70;;
51654;SDS011;37732;53.106;7.030;2023-03-17T09:23:05;6.00;;;3.65;;
51654;SDS011;37732;53.106;7.030;2023-03-17T09:25:34;8.30;;;3.83;;
51654;SDS011;37732;53.106;7.030;2023-03-17T09:28:01;6.32;;;3.92;;
51654;SDS011;37732;53.106;7.030;2023-03-17T09:30:27;6.30;;;4.28;;
51654;SDS011;37732;53.106;7.030;2023-03-17T09:32:53;6.07;;;3.63;;
51654;SDS011;37732;53.106;7.030;2023-03-17T09:35:19;7.05;;;4.00;;
51654;SDS011;37732;53.106;7.030;2023-03-17T09:37:46;6.63;;;4.43;;
51654;SDS011;37732;53.106;7.030;2023-03-17T09:40:13;7.90;;;4.38;;
51654;SDS011;37732;53.106;7.030;2023-03-17T09:42:46;7.20;;;4.18;;
51654;SDS011;37732;53.106;7.030;2023-03-17T09:45:38;5.35;;;3.45;;
51654;SDS011;37732;53.106;7.030;2023-03-17T09:48:27;6.75;;;4.03;;
51654;SDS011;37732;53.106;7.030;2023-03-17T09:51:05;6.22;;;3.95;;
51654;SDS011;37732;53.106;7.030;2023-03-17T09:53:55;6.13;;;3.88;;
51654;SDS011;37732;53.106;7.030;2023-03-17T09:56:31;6.22;;;3.95;;
51654;SDS011;37732;53.106;7.030;2023-03-17T09:59:03;6.90;;;4.05;;
51654;SDS011;37732;53.106;7.030;2023-03-17T10:01:32;5.93;;;3.97;;
51654;SDS011;37732;53.106;7.030;2023-03-17T10:03:58;8.05;;;4.25;;
51654;SDS011;37732;53.106;7.030;2023-03-17T10:06:40;7.93;;;4.50;;
51654;SDS011;37732;53.106;7.030;2023-03-17T10:11:47;6.28;;;3.85;;
51654;SDS011;37732;53.106;7.030;2023-03-17T10:19:43;6.43;;;4.72;;
51654;SDS011;37732;53.106;7.030;2023-03-17T10:25:50;7.47;;;4.38;;
51654;SDS011;37732;53.106;7.030;2023-03-17T10:30:26;6.18;;;4.00;;
51654;SDS011;37732;53.106;7.030;2023-03-17T10:32:55;6.00;;;3.97;;
51654;SDS011;37732;53.106;7.030;2023-03-17T10:35:24;7.43;;;4.07;;
51654;SDS011;37732;53.106;7.030;2023-03-17T10:37:50;7.82;;;4.40;;
51654;SDS011;37732;53.106;7.030;2023-03-17T10:40:20;6.00;;;3.75;;
51654;SDS011;37732;53.106;7.030;2023-03-17T10:43:02;9.88;;;4.50;;
51654;SDS011;37732;53.106;7.030;2023-03-17T10:45:33;9.95;;;4.57;;
51654;SDS011;37732;53.106;7.030;2023-03-17T10:48:02;7.05;;;4.60;;
51654;SDS011;37732;53.106;7.030;2023-03-17T10:50:33;7.78;;;4.78;;
51654;SDS011;37732;53.106;7.030;2023-03-17T10:53:18;6.65;;;4.50;;
51654;SDS011;37732;53.106;7.030;2023-03-17T10:58:48;5.20;;;3.53;;
51654;SDS011;37732;53.106;7.030;2023-03-17T11:01:28;6.30;;;3.90;;
51654;SDS011;37732;53.106;7.030;2023-03-17T11:04:01;8.15;;;4.53;;
51654;SDS011;37732;53.106;7.030;2023-03-17T11:06:39;7.05;;;3.72;;
51654;SDS011;37732;53.106;7.030;2023-03-17T11:09:09;7.15;;;4.63;;
51654;SDS011;37732;53.106;7.030;2023-03-17T11:11:58;6.60;;;4.22;;
51654;SDS011;37732;53.106;7.030;2023-03-17T11:14:27;10.55;;;5.10;;
51654;SDS011;37732;53.106;7.030;2023-03-17T11:17:00;6.30;;;4.28;;
51654;SDS011;37732;53.106;7.030;2023-03-17T11:27:41;8.02;;;4.78;;
51654;SDS011;37732;53.106;7.030;2023-03-17T11:30:20;8.85;;;4.95;;
51654;SDS011;37732;53.106;7.030;2023-03-17T11:35:36;7.00;;;4.68;;
51654;SDS011;37732;53.106;7.030;2023-03-17T11:38:12;6.47;;;4.40;;
51654;SDS011;37732;53.106;7.030;2023-03-17T11:49:10;7.88;;;4.80;;
51654;SDS011;37732;53.106;7.030;2023-03-17T11:54:20;9.40;;;4.38;;
51654;SDS011;37732;53.106;7.030;2023-03-17T11:56:55;7.22;;;4.93;;
51654;SDS011;37732;53.106;7.030;2023-03-17T12:05:04;7.22;;;5.13;;
51654;SDS011;37732;53.106;7.030;2023-03-17T12:07:35;9.07;;;4.97;;
51654;SDS011;37732;53.106;7.030;2023-03-17T12:12:56;8.38;;;4.88;;
51654;SDS011;37732;53.106;7.030;2023-03-17T12:15:50;10.02;;;5.55;;
51654;SDS011;37732;53.106;7.030;2023-03-17T12:20:51;8.43;;;5.50;;
51654;SDS011;37732;53.106;7.030;2023-03-17T12:31:53;8.20;;;5.72;;
51654;SDS011;37732;53.106;7.030;2023-03-17T12:37:02;11.00;;;5.60;;
51654;SDS011;37732;53.106;7.030;2023-03-17T12:39:32;9.07;;;6.05;;
51654;SDS011;37732;53.106;7.030;2023-03-17T12:45:03;8.82;;;5.70;;
51654;SDS011;37732;53.106;7.030;2023-03-17T12:47:48;7.22;;;5.07;;
51654;SDS011;37732;53.106;7.030;2023-03-17T12:50:35;7.78;;;5.25;;
51654;SDS011;37732;53.106;7.030;2023-03-17T12:55:40;9.95;;;5.93;;
51654;SDS011;37732;53.106;7.030;2023-03-17T13:00:54;8.65;;;5.70;;
51654;SDS011;37732;53.106;7.030;2023-03-17T13:03:30;7.72;;;5.20;;
51654;SDS011;37732;53.106;7.030;2023-03-17T13:06:02;9.23;;;5.47;;
51654;SDS011;37732;53.106;7.030;2023-03-17T13:08:36;9.70;;;6.18;;
51654;SDS011;37732;53.106;7.030;2023-03-17T13:18:51;8.95;;;6.22;;
51654;SDS011;37732;53.106;7.030;2023-03-17T13:21:43;6.70;;;5.35;;
51654;SDS011;37732;53.106;7.030;2023-03-17T13:24:49;10.15;;;6.38;;
51654;SDS011;37732;53.106;7.030;2023-03-17T13:29:57;7.53;;;5.63;;
51654;SDS011;37732;53.106;7.030;2023-03-17T13:32:43;9.70;;;5.93;;
51654;SDS011;37732;53.106;7.030;2023-03-17T13:35:19;11.00;;;6.15;;
51654;SDS011;37732;53.106;7.030;2023-03-17T13:46:29;7.70;;;5.57;;
51654;SDS011;37732;53.106;7.030;2023-03-17T13:48:59;8.00;;;6.25;;
51654;SDS011;37732;53.106;7.030;2023-03-17T13:51:31;7.30;;;5.38;;
51654;SDS011;37732;53.106;7.030;2023-03-17T13:54:08;8.02;;;6.28;;
51654;SDS011;37732;53.106;7.030;2023-03-17T13:56:45;9.45;;;6.22;;
51654;SDS011;37732;53.106;7.030;2023-03-17T13:59:14;7.43;;;5.60;;
51654;SDS011;37732;53.106;7.030;2023-03-17T14:04:25;7.75;;;5.43;;
51654;SDS011;37732;53.106;7.030;2023-03-17T14:06:55;7.93;;;5.70;;
51654;SDS011;37732;53.106;7.030;2023-03-17T14:09:38;9.00;;;6.47;;
51654;SDS011;37732;53.106;7.030;2023-03-17T14:12:10;9.27;;;5.78;;
51654;SDS011;37732;53.106;7.030;2023-03-17T14:14:53;8.50;;;5.78;;
51654;SDS011;37732;53.106;7.030;2023-03-17T14:17:31;7.25;;;5.32;;
51654;SDS011;37732;53.106;7.030;2023-03-17T14:22:46;11.00;;;6.15;;
51654;SDS011;37732;53.106;7.030;2023-03-17T14:25:17;9.00;;;5.85;;
51654;SDS011;37732;53.106;7.030;2023-03-17T14:27:49;9.10;;;6.45;;
51654;SDS011;37732;53.106;7.030;2023-03-17T14:30:27;8.23;;;5.97;;
51654;SDS011;37732;53.106;7.030;2023-03-17T14:33:00;8.45;;;5.78;;
51654;SDS011;37732;53.106;7.030;2023-03-17T14:35:40;7.72;;;5.85;;
51654;SDS011;37732;53.106;7.030;2023-03-17T14:40:47;8.32;;;5.80;;
51654;SDS011;37732;53.106;7.030;2023-03-17T14:43:14;9.23;;;6.13;;
51654;SDS011;37732;53.106;7.030;2023-03-17T14:45:50;20.40;;;7.25;;
51654;SDS011;37732;53.106;7.030;2023-03-17T14:48:29;8.07;;;6.32;;
51654;SDS011;37732;53.106;7.030;2023-03-17T14:50:59;9.20;;;5.72;;
51654;SDS011;37732;53.106;7.030;2023-03-17T14:53:39;8.35;;;5.85;;
51654;SDS011;37732;53.106;7.030;2023-03-17T14:56:07;10.05;;;6.30;;
51654;SDS011;37732;53.106;7.030;2023-03-17T14:58:40;9.48;;;6.50;;
51654;SDS011;37732;53.106;7.030;2023-03-17T15:01:13;9.30;;;5.75;;
51654;SDS011;37732;53.106;7.030;2023-03-17T15:03:52;7.75;;;5.97;;
51654;SDS011;37732;53.106;7.030;2023-03-17T15:06:55;8.25;;;5.93;;
51654;SDS011;37732;53.106;7.030;2023-03-17T15:09:24;8.90;;;6.03;;
51654;SDS011;37732;53.106;7.030;2023-03-17T15:12:05;9.93;;;6.10;;
51654;SDS011;37732;53.106;7.030;2023-03-17T15:14:40;8.93;;;6.90;;
51654;SDS011;37732;53.106;7.030;2023-03-17T15:17:16;9.95;;;7.18;;
51654;SDS011;37732;53.106;7.030;2023-03-17T15:19:48;9.18;;;6.47;;
51654;SDS011;37732;53.106;7.030;2023-03-17T15:22:21;7.80;;;6.13;;
51654;SDS011;37732;53.106;7.030;2023-03-17T15:24:57;9.25;;;6.35;;
51654;SDS011;37732;53.106;7.030;2023-03-17T15:27:25;10.88;;;6.35;;
51654;SDS011;37732;53.106;7.030;2023-03-17T15:29:51;11.30;;;6.55;;
51654;SDS011;37732;53.106;7.030;2023-03-17T15:32:18;10.10;;;6.63;;
51654;SDS011;37732;53.106;7.030;2023-03-17T15:34:48;9.57;;;6.22;;
51654;SDS011;37732;53.106;7.030;2023-03-17T15:39:42;8.95;;;6.68;;
51654;SDS011;37732;53.106;7.030;2023-03-17T15:42:08;9.30;;;6.28;;
51654;SDS011;37732;53.106;7.030;2023-03-17T15:44:33;8.80;;;6.40;;
51654;SDS011;37732;53.106;7.030;2023-03-17T15:46:59;7.47;;;5.57;;
51654;SDS011;37732;53.106;7.030;2023-03-17T15:49:25;8.55;;;6.25;;
51654;SDS011;37732;53.106;7.030;2023-03-17T15:51:51;8.80;;;6.93;;
51654;SDS011;37732;53.106;7.030;2023-03-17T15:54:16;8.70;;;6.15;;
51654;SDS011;37732;53.106;7.030;2023-03-17T15:56:42;8.95;;;6.30;;
51654;SDS011;37732;53.106;7.030;2023-03-17T15:59:08;9.45;;;6.55;;
51654;SDS011;37732;53.106;7.030;2023-03-17T16:01:35;14.40;;;6.75;;
51654;SDS011;37732;53.106;7.030;2023-03-17T16:04:03;9.80;;;6.20;;
51654;SDS011;37732;53.106;7.030;2023-03-17T16:06:29;9.73;;;6.68;;
51654;SDS011;37732;53.106;7.030;2023-03-17T16:08:55;11.05;;;7.05;;
51654;SDS011;37732;53.106;7.030;2023-03-17T16:11:21;9.00;;;6.68;;
51654;SDS011;37732;53.106;7.030;2023-03-17T16:13:52;8.05;;;6.68;;
51654;SDS011;37732;53.106;7.030;2023-03-17T16:16:21;8.52;;;6.35;;
51654;SDS011;37732;53.106;7.030;2023-03-17T16:18:52;9.40;;;7.13;;
51654;SDS011;37732;53.106;7.030;2023-03-17T16:21:18;10.50;;;7.18;;
51654;SDS011;37732;53.106;7.030;2023-03-17T16:23:44;9.20;;;5.95;;
51654;SDS011;37732;53.106;7.030;2023-03-17T16:26:11;10.48;;;7.18;;
51654;SDS011;37732;53.106;7.030;2023-03-17T16:28:37;8.38;;;6.28;;
51654;SDS011;37732;53.106;7.030;2023-03-17T16:31:07;10.00;;;6.47;;
51654;SDS011;37732;53.106;7.030;2023-03-17T16:33:44;12.13;;;6.55;;
51654;SDS011;37732;53.106;7.030;2023-03-17T16:36:12;11.98;;;6.47;;
51654;SDS011;37732;53.106;7.030;2023-03-17T16:38:40;8.73;;;6.82;;
51654;SDS011;37732;53.106;7.030;2023-03-17T16:43:41;10.70;;;6.72;;
51654;SDS011;37732;53.106;7.030;2023-03-17T16:46:08;10.88;;;6.72;;
51654;SDS011;37732;53.106;7.030;2023-03-17T16:48:35;11.65;;;6.88;;
51654;SDS011;37732;53.106;7.030;2023-03-17T16:51:01;9.20;;;6.32;;
51654;SDS011;37732;53.106;7.030;2023-03-17T16:53:28;8.57;;;6.40;;
51654;SDS011;37732;53.106;7.030;2023-03-17T16:55:54;9.10;;;6.10;;